sensor_id;sensor_type;location;lat;lon;timestamp;P1;durP1;ratioP1;P2;durP2;ratioP2
23743;SDS011;12052;53.478;10.182;2023-02-12T00:02:07;12.48;;;4.68;;
23743;SDS011;12052;53.478;10.182;2023-02-12T00:04:33;9.73;;;3.95;;
23743;SDS011;12052;53.478;10.182;2023-02-12T00:06:59;10.05;;;4.47;;
23743;SDS011;12052;53.478;10.182;2023-02-12T00:09:25;10.73;;;4.20;;
23743;SDS011;12052;53.478;10.182;2023-02-12T00:11:51;11.18;;;4.00;;
23743;SDS011;12052;53.478;10.182;2023-02-12T00:14:16;8.90;;;4.00;;
23743;SDS011;12052;53.478;10.182;2023-02-12T00:16:42;8.13;;;3.65;;
23743;SDS011;12052;53.478;10.182;2023-02-12T00:19:08;10.27;;;4.22;;
23743;SDS011;12052;53.478;10.182;2023-02-12T00:21:33;5.30;;;3.60;;
23743;SDS011;12052;53.478;10.182;2023-02-12T00:23:59;8.45;;;3.53;;
23743;SDS011;12052;53.478;10.182;2023-02-12T00:26:25;9.02;;;2.95;;
23743;SDS011;12052;53.478;10.182;2023-02-12T00:28:52;10.18;;;3.03;;
23743;SDS011;12052;53.478;10.182;2023-02-12T00:31:24;10.18;;;2.97;;
23743;SDS011;12052;53.478;10.182;2023-02-12T00:33:52;6.07;;;2.63;;
23743;SDS011;12052;53.478;10.182;2023-02-12T00:36:19;5.88;;;2.55;;
23743;SDS011;12052;53.478;10.182;2023-02-12T00:38:47;6.30;;;2.78;;
23743;SDS011;12052;53.478;10.182;2023-02-12T00:41:13;4.72;;;2.97;;
23743;SDS011;12052;53.478;10.182;2023-02-12T00:43:39;7.05;;;2.80;;
23743;SDS011;12052;53.478;10.182;2023-02-12T00:46:04;9.32;;;4.03;;
23743;SDS011;12052;53.478;10.182;2023-02-12T00:48:31;7.95;;;3.47;;
23743;SDS011;12052;53.478;10.182;2023-02-12T00:50:57;6.03;;;2.90;;
23743;SDS011;12052;53.478;10.182;2023-02-12T00:53:23;7.07;;;3.40;;
23743;SDS011;12052;53.478;10.182;2023-02-12T00:55:49;5.55;;;2.45;;
23743;SDS011;12052;53.478;10.182;2023-02-12T00:58:14;5.50;;;2.65;;
23743;SDS011;12052;53.478;10.182;2023-02-12T01:00:41;6.55;;;3.10;;
23743;SDS011;12052;53.478;10.182;2023-02-12T01:03:07;6.63;;;2.92;;
23743;SDS011;12052;53.478;10.182;2023-02-12T01:05:33;5.90;;;2.97;;
23743;SDS011;12052;53.478;10.182;2023-02-12T01:07:59;4.32;;;2.65;;
23743;SDS011;12052;53.478;10.182;2023-02-12T01:10:25;5.85;;;2.85;;
23743;SDS011;12052;53.478;10.182;2023-02-12T01:12:51;5.75;;;2.75;;
23743;SDS011;12052;53.478;10.182;2023-02-12T01:15:17;4.90;;;2.90;;
23743;SDS011;12052;53.478;10.182;2023-02-12T01:17:43;6.57;;;3.10;;
23743;SDS011;12052;53.478;10.182;2023-02-12T01:20:10;7.78;;;3.90;;
23743;SDS011;12052;53.478;10.182;2023-02-12T01:22:38;6.40;;;3.08;;
23743;SDS011;12052;53.478;10.182;2023-02-12T01:25:04;8.48;;;2.95;;
23743;SDS011;12052;53.478;10.182;2023-02-12T01:27:31;9.75;;;3.25;;
23743;SDS011;12052;53.478;10.182;2023-02-12T01:29:57;7.40;;;3.22;;
23743;SDS011;12052;53.478;10.182;2023-02-12T01:32:22;8.38;;;3.35;;
23743;SDS011;12052;53.478;10.182;2023-02-12T01:34:48;5.95;;;3.03;;
23743;SDS011;12052;53.478;10.182;2023-02-12T01:37:14;7.20;;;3.08;;
23743;SDS011;12052;53.478;10.182;2023-02-12T01:39:40;6.65;;;3.17;;
23743;SDS011;12052;53.478;10.182;2023-02-12T01:42:05;7.40;;;3.90;;
23743;SDS011;12052;53.478;10.182;2023-02-12T01:44:32;7.80;;;4.35;;
23743;SDS011;12052;53.478;10.182;2023-02-12T01:47:02;9.02;;;4.47;;
23743;SDS011;12052;53.478;10.182;2023-02-12T01:49:35;12.65;;;5.32;;
23743;SDS011;12052;53.478;10.182;2023-02-12T01:54:33;11.32;;;5.22;;
23743;SDS011;12052;53.478;10.182;2023-02-12T01:57:00;12.02;;;5.00;;
23743;SDS011;12052;53.478;10.182;2023-02-12T01:59:28;7.90;;;4.15;;
23743;SDS011;12052;53.478;10.182;2023-02-12T02:01:55;12.80;;;4.80;;
23743;SDS011;12052;53.478;10.182;2023-02-12T02:04:23;8.73;;;4.15;;
23743;SDS011;12052;53.478;10.182;2023-02-12T02:06:54;6.72;;;3.85;;
23743;SDS011;12052;53.478;10.182;2023-02-12T02:09:22;7.40;;;3.85;;
23743;SDS011;12052;53.478;10.182;2023-02-12T02:11:48;9.20;;;4.18;;
23743;SDS011;12052;53.478;10.182;2023-02-12T02:14:32;9.27;;;4.35;;
23743;SDS011;12052;53.478;10.182;2023-02-12T02:19:52;10.50;;;4.50;;
23743;SDS011;12052;53.478;10.182;2023-02-12T02:31:25;10.77;;;4.75;;
23743;SDS011;12052;53.478;10.182;2023-02-12T02:34:02;14.15;;;5.63;;
23743;SDS011;12052;53.478;10.182;2023-02-12T02:39:38;15.15;;;5.68;;
23743;SDS011;12052;53.478;10.182;2023-02-12T02:42:28;14.68;;;6.10;;
23743;SDS011;12052;53.478;10.182;2023-02-12T02:45:01;12.98;;;6.13;;
23743;SDS011;12052;53.478;10.182;2023-02-12T02:50:39;15.40;;;6.40;;
23743;SDS011;12052;53.478;10.182;2023-02-12T02:53:11;19.05;;;7.00;;
23743;SDS011;12052;53.478;10.182;2023-02-12T02:55:43;18.58;;;7.65;;
23743;SDS011;12052;53.478;10.182;2023-02-12T02:58:15;18.55;;;7.05;;
23743;SDS011;12052;53.478;10.182;2023-02-12T03:00:49;19.38;;;6.18;;
23743;SDS011;12052;53.478;10.182;2023-02-12T03:03:41;15.07;;;6.15;;
23743;SDS011;12052;53.478;10.182;2023-02-12T03:06:29;15.73;;;5.80;;
23743;SDS011;12052;53.478;10.182;2023-02-12T03:09:12;12.35;;;5.05;;
23743;SDS011;12052;53.478;10.182;2023-02-12T03:12:08;12.55;;;4.97;;
23743;SDS011;12052;53.478;10.182;2023-02-12T03:14:38;12.98;;;5.60;;
23743;SDS011;12052;53.478;10.182;2023-02-12T03:17:17;16.73;;;5.82;;
23743;SDS011;12052;53.478;10.182;2023-02-12T03:19:47;17.48;;;6.55;;
23743;SDS011;12052;53.478;10.182;2023-02-12T03:22:20;14.75;;;6.35;;
23743;SDS011;12052;53.478;10.182;2023-02-12T03:27:23;19.27;;;7.90;;
23743;SDS011;12052;53.478;10.182;2023-02-12T03:29:58;18.23;;;7.40;;
23743;SDS011;12052;53.478;10.182;2023-02-12T03:35:31;18.85;;;6.72;;
23743;SDS011;12052;53.478;10.182;2023-02-12T03:38:04;14.50;;;6.20;;
23743;SDS011;12052;53.478;10.182;2023-02-12T03:40:50;16.83;;;6.78;;
23743;SDS011;12052;53.478;10.182;2023-02-12T03:43:26;17.38;;;6.63;;
23743;SDS011;12052;53.478;10.182;2023-02-12T03:48:36;15.23;;;6.15;;
23743;SDS011;12052;53.478;10.182;2023-02-12T03:51:12;15.32;;;5.70;;
23743;SDS011;12052;53.478;10.182;2023-02-12T03:53:41;12.02;;;5.25;;
23743;SDS011;12052;53.478;10.182;2023-02-12T03:56:11;15.48;;;5.95;;
23743;SDS011;12052;53.478;10.182;2023-02-12T03:58:40;20.33;;;5.47;;
23743;SDS011;12052;53.478;10.182;2023-02-12T04:01:07;16.98;;;5.65;;
23743;SDS011;12052;53.478;10.182;2023-02-12T04:03:33;16.58;;;5.00;;
23743;SDS011;12052;53.478;10.182;2023-02-12T04:05:59;15.02;;;5.38;;
23743;SDS011;12052;53.478;10.182;2023-02-12T04:08:24;11.70;;;4.72;;
23743;SDS011;12052;53.478;10.182;2023-02-12T04:11:05;7.93;;;3.60;;
23743;SDS011;12052;53.478;10.182;2023-02-12T04:13:42;8.50;;;3.78;;
23743;SDS011;12052;53.478;10.182;2023-02-12T04:16:28;12.52;;;3.28;;
23743;SDS011;12052;53.478;10.182;2023-02-12T04:19:19;8.02;;;2.90;;
23743;SDS011;12052;53.478;10.182;2023-02-12T04:24:37;7.90;;;3.30;;
23743;SDS011;12052;53.478;10.182;2023-02-12T04:27:18;8.63;;;3.42;;
23743;SDS011;12052;53.478;10.182;2023-02-12T04:32:53;10.02;;;3.53;;
23743;SDS011;12052;53.478;10.182;2023-02-12T04:35:30;10.07;;;4.10;;
23743;SDS011;12052;53.478;10.182;2023-02-12T04:40:32;11.02;;;4.03;;
23743;SDS011;12052;53.478;10.182;2023-02-12T04:42:58;7.18;;;3.47;;
23743;SDS011;12052;53.478;10.182;2023-02-12T04:45:26;14.10;;;5.10;;
23743;SDS011;12052;53.478;10.182;2023-02-12T04:47:54;11.50;;;4.55;;
23743;SDS011;12052;53.478;10.182;2023-02-12T04:50:19;13.80;;;4.97;;
23743;SDS011;12052;53.478;10.182;2023-02-12T04:52:45;14.98;;;5.20;;
23743;SDS011;12052;53.478;10.182;2023-02-12T04:55:11;13.20;;;5.45;;
23743;SDS011;12052;53.478;10.182;2023-02-12T04:57:37;15.60;;;6.25;;
23743;SDS011;12052;53.478;10.182;2023-02-12T05:00:03;20.67;;;6.57;;
23743;SDS011;12052;53.478;10.182;2023-02-12T05:02:32;22.38;;;7.78;;
23743;SDS011;12052;53.478;10.182;2023-02-12T05:04:58;21.95;;;7.50;;
23743;SDS011;12052;53.478;10.182;2023-02-12T05:07:23;23.92;;;7.80;;
23743;SDS011;12052;53.478;10.182;2023-02-12T05:09:49;24.40;;;8.23;;
23743;SDS011;12052;53.478;10.182;2023-02-12T05:12:14;26.58;;;8.10;;
23743;SDS011;12052;53.478;10.182;2023-02-12T05:14:40;28.48;;;8.55;;
23743;SDS011;12052;53.478;10.182;2023-02-12T05:17:05;29.08;;;8.90;;
23743;SDS011;12052;53.478;10.182;2023-02-12T05:19:31;30.70;;;7.95;;
23743;SDS011;12052;53.478;10.182;2023-02-12T05:21:57;31.85;;;8.77;;
23743;SDS011;12052;53.478;10.182;2023-02-12T05:24:22;34.30;;;9.80;;
23743;SDS011;12052;53.478;10.182;2023-02-12T05:26:48;27.92;;;9.13;;
23743;SDS011;12052;53.478;10.182;2023-02-12T05:29:14;34.13;;;9.70;;
23743;SDS011;12052;53.478;10.182;2023-02-12T05:31:39;43.47;;;9.80;;
23743;SDS011;12052;53.478;10.182;2023-02-12T05:34:05;35.35;;;8.60;;
23743;SDS011;12052;53.478;10.182;2023-02-12T05:36:33;36.88;;;8.90;;
23743;SDS011;12052;53.478;10.182;2023-02-12T05:38:59;39.30;;;9.35;;
23743;SDS011;12052;53.478;10.182;2023-02-12T05:41:25;41.45;;;9.25;;
23743;SDS011;12052;53.478;10.182;2023-02-12T05:43:51;41.20;;;9.25;;
23743;SDS011;12052;53.478;10.182;2023-02-12T05:46:17;49.95;;;9.90;;
23743;SDS011;12052;53.478;10.182;2023-02-12T05:48:44;41.53;;;9.13;;
23743;SDS011;12052;53.478;10.182;2023-02-12T05:51:14;36.25;;;9.13;;
23743;SDS011;12052;53.478;10.182;2023-02-12T05:53:42;43.42;;;9.27;;
23743;SDS011;12052;53.478;10.182;2023-02-12T05:58:41;38.10;;;9.13;;
23743;SDS011;12052;53.478;10.182;2023-02-12T06:01:14;40.42;;;9.68;;
23743;SDS011;12052;53.478;10.182;2023-02-12T06:03:41;35.28;;;7.60;;
23743;SDS011;12052;53.478;10.182;2023-02-12T06:06:07;34.25;;;8.38;;
23743;SDS011;12052;53.478;10.182;2023-02-12T06:08:32;38.08;;;8.90;;
23743;SDS011;12052;53.478;10.182;2023-02-12T06:11:01;33.95;;;9.07;;
23743;SDS011;12052;53.478;10.182;2023-02-12T06:13:29;34.90;;;7.85;;
23743;SDS011;12052;53.478;10.182;2023-02-12T06:15:55;42.78;;;8.80;;
23743;SDS011;12052;53.478;10.182;2023-02-12T06:18:21;26.90;;;7.80;;
23743;SDS011;12052;53.478;10.182;2023-02-12T06:20:47;29.25;;;7.50;;
23743;SDS011;12052;53.478;10.182;2023-02-12T06:23:12;36.55;;;8.00;;
23743;SDS011;12052;53.478;10.182;2023-02-12T06:25:38;28.23;;;7.72;;
23743;SDS011;12052;53.478;10.182;2023-02-12T06:28:03;25.02;;;7.00;;
23743;SDS011;12052;53.478;10.182;2023-02-12T06:30:29;23.40;;;7.03;;
23743;SDS011;12052;53.478;10.182;2023-02-12T06:32:55;28.95;;;8.00;;
23743;SDS011;12052;53.478;10.182;2023-02-12T06:35:21;31.10;;;7.53;;
23743;SDS011;12052;53.478;10.182;2023-02-12T06:37:47;24.23;;;7.55;;
23743;SDS011;12052;53.478;10.182;2023-02-12T06:40:12;31.58;;;6.78;;
23743;SDS011;12052;53.478;10.182;2023-02-12T06:42:38;33.67;;;6.03;;
23743;SDS011;12052;53.478;10.182;2023-02-12T06:45:04;22.77;;;5.43;;
23743;SDS011;12052;53.478;10.182;2023-02-12T06:47:29;23.05;;;6.13;;
23743;SDS011;12052;53.478;10.182;2023-02-12T06:49:55;20.13;;;5.80;;
23743;SDS011;12052;53.478;10.182;2023-02-12T06:52:21;18.98;;;5.80;;
23743;SDS011;12052;53.478;10.182;2023-02-12T06:54:46;24.35;;;6.55;;
23743;SDS011;12052;53.478;10.182;2023-02-12T06:57:12;24.17;;;6.07;;
23743;SDS011;12052;53.478;10.182;2023-02-12T06:59:38;19.10;;;5.45;;
23743;SDS011;12052;53.478;10.182;2023-02-12T07:02:03;19.02;;;6.18;;
23743;SDS011;12052;53.478;10.182;2023-02-12T07:04:29;19.80;;;5.35;;
23743;SDS011;12052;53.478;10.182;2023-02-12T07:06:55;17.80;;;5.57;;
23743;SDS011;12052;53.478;10.182;2023-02-12T07:09:20;21.98;;;5.43;;
23743;SDS011;12052;53.478;10.182;2023-02-12T07:11:46;19.55;;;5.25;;
23743;SDS011;12052;53.478;10.182;2023-02-12T07:14:15;18.92;;;5.45;;
23743;SDS011;12052;53.478;10.182;2023-02-12T07:16:41;19.42;;;4.70;;
23743;SDS011;12052;53.478;10.182;2023-02-12T07:19:07;23.30;;;5.18;;
23743;SDS011;12052;53.478;10.182;2023-02-12T07:21:33;27.10;;;5.35;;
23743;SDS011;12052;53.478;10.182;2023-02-12T07:23:59;20.70;;;5.15;;
23743;SDS011;12052;53.478;10.182;2023-02-12T07:26:24;24.10;;;5.60;;
23743;SDS011;12052;53.478;10.182;2023-02-12T07:28:50;19.48;;;5.22;;
23743;SDS011;12052;53.478;10.182;2023-02-12T07:31:17;21.48;;;4.80;;
23743;SDS011;12052;53.478;10.182;2023-02-12T07:33:45;18.48;;;5.35;;
23743;SDS011;12052;53.478;10.182;2023-02-12T07:36:12;20.55;;;5.15;;
23743;SDS011;12052;53.478;10.182;2023-02-12T07:38:39;22.08;;;4.85;;
23743;SDS011;12052;53.478;10.182;2023-02-12T07:41:15;22.10;;;4.85;;
23743;SDS011;12052;53.478;10.182;2023-02-12T07:46:18;20.13;;;5.50;;
23743;SDS011;12052;53.478;10.182;2023-02-12T07:48:45;19.10;;;4.80;;
23743;SDS011;12052;53.478;10.182;2023-02-12T07:51:15;14.02;;;5.15;;
23743;SDS011;12052;53.478;10.182;2023-02-12T07:53:45;25.25;;;5.88;;
23743;SDS011;12052;53.478;10.182;2023-02-12T07:56:15;21.63;;;5.00;;
23743;SDS011;12052;53.478;10.182;2023-02-12T07:58:41;23.52;;;5.88;;
23743;SDS011;12052;53.478;10.182;2023-02-12T08:01:18;30.48;;;7.47;;
23743;SDS011;12052;53.478;10.182;2023-02-12T08:03:46;23.58;;;5.47;;
23743;SDS011;12052;53.478;10.182;2023-02-12T08:06:23;23.30;;;5.75;;
23743;SDS011;12052;53.478;10.182;2023-02-12T08:08:54;25.40;;;5.82;;
23743;SDS011;12052;53.478;10.182;2023-02-12T08:11:22;30.83;;;7.25;;
23743;SDS011;12052;53.478;10.182;2023-02-12T08:13:48;35.20;;;6.90;;
23743;SDS011;12052;53.478;10.182;2023-02-12T08:16:16;23.40;;;6.78;;
23743;SDS011;12052;53.478;10.182;2023-02-12T08:18:43;29.40;;;7.05;;
23743;SDS011;12052;53.478;10.182;2023-02-12T08:21:13;29.45;;;7.63;;
23743;SDS011;12052;53.478;10.182;2023-02-12T08:23:40;26.20;;;6.63;;
23743;SDS011;12052;53.478;10.182;2023-02-12T08:26:13;38.55;;;8.02;;
23743;SDS011;12052;53.478;10.182;2023-02-12T08:28:42;29.42;;;7.72;;
23743;SDS011;12052;53.478;10.182;2023-02-12T08:31:13;32.83;;;7.95;;
23743;SDS011;12052;53.478;10.182;2023-02-12T08:33:44;25.65;;;7.95;;
23743;SDS011;12052;53.478;10.182;2023-02-12T08:36:12;32.35;;;8.55;;
23743;SDS011;12052;53.478;10.182;2023-02-12T08:38:40;24.48;;;6.80;;
23743;SDS011;12052;53.478;10.182;2023-02-12T08:41:08;25.33;;;7.43;;
23743;SDS011;12052;53.478;10.182;2023-02-12T08:43:36;25.05;;;7.90;;
23743;SDS011;12052;53.478;10.182;2023-02-12T08:46:04;24.30;;;7.60;;
23743;SDS011;12052;53.478;10.182;2023-02-12T08:48:31;30.58;;;8.57;;
23743;SDS011;12052;53.478;10.182;2023-02-12T08:51:10;32.40;;;8.73;;
23743;SDS011;12052;53.478;10.182;2023-02-12T08:53:44;28.52;;;8.23;;
23743;SDS011;12052;53.478;10.182;2023-02-12T08:56:11;31.23;;;8.05;;
23743;SDS011;12052;53.478;10.182;2023-02-12T08:58:38;31.48;;;8.98;;
23743;SDS011;12052;53.478;10.182;2023-02-12T09:01:04;30.85;;;9.65;;
23743;SDS011;12052;53.478;10.182;2023-02-12T09:03:34;27.40;;;8.15;;
23743;SDS011;12052;53.478;10.182;2023-02-12T09:06:03;28.42;;;8.88;;
23743;SDS011;12052;53.478;10.182;2023-02-12T09:08:30;26.13;;;8.82;;
23743;SDS011;12052;53.478;10.182;2023-02-12T09:10:56;27.80;;;9.25;;
23743;SDS011;12052;53.478;10.182;2023-02-12T09:13:22;27.92;;;9.20;;
23743;SDS011;12052;53.478;10.182;2023-02-12T09:15:48;25.80;;;8.63;;
23743;SDS011;12052;53.478;10.182;2023-02-12T09:18:13;29.88;;;9.68;;
23743;SDS011;12052;53.478;10.182;2023-02-12T09:20:43;25.55;;;8.68;;
23743;SDS011;12052;53.478;10.182;2023-02-12T09:23:14;33.33;;;9.82;;
23743;SDS011;12052;53.478;10.182;2023-02-12T09:25:43;23.40;;;8.88;;
23743;SDS011;12052;53.478;10.182;2023-02-12T09:28:10;24.52;;;8.45;;
23743;SDS011;12052;53.478;10.182;2023-02-12T09:30:37;25.23;;;8.75;;
23743;SDS011;12052;53.478;10.182;2023-02-12T09:33:04;27.77;;;9.63;;
23743;SDS011;12052;53.478;10.182;2023-02-12T09:35:33;29.25;;;9.48;;
23743;SDS011;12052;53.478;10.182;2023-02-12T09:37:59;24.77;;;8.93;;
23743;SDS011;12052;53.478;10.182;2023-02-12T09:43:23;25.10;;;9.20;;
23743;SDS011;12052;53.478;10.182;2023-02-12T09:46:29;22.02;;;8.75;;
23743;SDS011;12052;53.478;10.182;2023-02-12T09:51:33;20.33;;;9.18;;
23743;SDS011;12052;53.478;10.182;2023-02-12T09:54:10;20.33;;;8.68;;
23743;SDS011;12052;53.478;10.182;2023-02-12T09:56:39;25.63;;;10.27;;
23743;SDS011;12052;53.478;10.182;2023-02-12T09:59:10;24.35;;;9.13;;
23743;SDS011;12052;53.478;10.182;2023-02-12T10:01:39;20.98;;;9.00;;
23743;SDS011;12052;53.478;10.182;2023-02-12T10:04:05;22.20;;;8.85;;
23743;SDS011;12052;53.478;10.182;2023-02-12T10:06:35;26.35;;;10.13;;
23743;SDS011;12052;53.478;10.182;2023-02-12T10:12:12;18.83;;;9.35;;
23743;SDS011;12052;53.478;10.182;2023-02-12T10:17:39;22.40;;;8.80;;
23743;SDS011;12052;53.478;10.182;2023-02-12T10:20:49;17.98;;;8.52;;
23743;SDS011;12052;53.478;10.182;2023-02-12T10:23:24;27.55;;;8.27;;
23743;SDS011;12052;53.478;10.182;2023-02-12T10:28:43;22.90;;;8.07;;
23743;SDS011;12052;53.478;10.182;2023-02-12T10:31:20;17.98;;;8.13;;
23743;SDS011;12052;53.478;10.182;2023-02-12T10:33:54;20.77;;;8.63;;
23743;SDS011;12052;53.478;10.182;2023-02-12T10:39:04;17.20;;;7.63;;
23743;SDS011;12052;53.478;10.182;2023-02-12T10:41:43;14.20;;;6.70;;
23743;SDS011;12052;53.478;10.182;2023-02-12T10:44:13;13.98;;;6.03;;
23743;SDS011;12052;53.478;10.182;2023-02-12T10:46:39;10.57;;;5.45;;
23743;SDS011;12052;53.478;10.182;2023-02-12T10:49:05;16.38;;;6.00;;
23743;SDS011;12052;53.478;10.182;2023-02-12T10:51:47;12.10;;;5.25;;
23743;SDS011;12052;53.478;10.182;2023-02-12T10:57:12;12.32;;;5.97;;
23743;SDS011;12052;53.478;10.182;2023-02-12T10:59:41;13.30;;;5.57;;
23743;SDS011;12052;53.478;10.182;2023-02-12T11:02:18;12.23;;;5.55;;
23743;SDS011;12052;53.478;10.182;2023-02-12T11:04:50;11.23;;;5.80;;
23743;SDS011;12052;53.478;10.182;2023-02-12T11:07:17;13.48;;;5.70;;
23743;SDS011;12052;53.478;10.182;2023-02-12T11:09:47;12.20;;;6.22;;
23743;SDS011;12052;53.478;10.182;2023-02-12T11:12:23;10.88;;;5.45;;
23743;SDS011;12052;53.478;10.182;2023-02-12T11:15:00;14.75;;;6.10;;
23743;SDS011;12052;53.478;10.182;2023-02-12T11:17:37;10.85;;;5.65;;
23743;SDS011;12052;53.478;10.182;2023-02-12T11:25:31;9.38;;;4.60;;
23743;SDS011;12052;53.478;10.182;2023-02-12T11:28:17;9.13;;;4.75;;
23743;SDS011;12052;53.478;10.182;2023-02-12T11:30:53;10.07;;;5.22;;
23743;SDS011;12052;53.478;10.182;2023-02-12T11:33:44;9.75;;;5.05;;
23743;SDS011;12052;53.478;10.182;2023-02-12T11:38:38;13.23;;;5.50;;
23743;SDS011;12052;53.478;10.182;2023-02-12T11:41:32;13.93;;;5.50;;
23743;SDS011;12052;53.478;10.182;2023-02-12T11:46:36;10.23;;;5.03;;
23743;SDS011;12052;53.478;10.182;2023-02-12T11:49:03;9.30;;;5.45;;
23743;SDS011;12052;53.478;10.182;2023-02-12T11:51:33;10.27;;;4.25;;
23743;SDS011;12052;53.478;10.182;2023-02-12T11:54:00;12.52;;;4.70;;
23743;SDS011;12052;53.478;10.182;2023-02-12T12:01:49;11.13;;;4.97;;
23743;SDS011;12052;53.478;10.182;2023-02-12T12:04:17;10.20;;;4.55;;
23743;SDS011;12052;53.478;10.182;2023-02-12T12:07:18;10.60;;;4.97;;
23743;SDS011;12052;53.478;10.182;2023-02-12T12:09:45;10.13;;;4.72;;
23743;SDS011;12052;53.478;10.182;2023-02-12T12:12:21;10.68;;;4.63;;
23743;SDS011;12052;53.478;10.182;2023-02-12T12:18:19;9.13;;;4.60;;
23743;SDS011;12052;53.478;10.182;2023-02-12T12:21:12;12.70;;;5.07;;
23743;SDS011;12052;53.478;10.182;2023-02-12T12:23:40;11.15;;;5.60;;
23743;SDS011;12052;53.478;10.182;2023-02-12T12:26:12;11.00;;;5.20;;
23743;SDS011;12052;53.478;10.182;2023-02-12T12:34:10;14.30;;;6.20;;
23743;SDS011;12052;53.478;10.182;2023-02-12T12:39:35;16.50;;;6.72;;
23743;SDS011;12052;53.478;10.182;2023-02-12T12:53:40;13.68;;;5.05;;
23743;SDS011;12052;53.478;10.182;2023-02-12T13:03:00;15.20;;;6.40;;
23743;SDS011;12052;53.478;10.182;2023-02-12T13:17:57;10.55;;;5.03;;
23743;SDS011;12052;53.478;10.182;2023-02-12T13:23:35;7.95;;;4.30;;
23743;SDS011;12052;53.478;10.182;2023-02-12T13:26:29;10.52;;;4.40;;
23743;SDS011;12052;53.478;10.182;2023-02-12T13:29:11;9.85;;;4.60;;
23743;SDS011;12052;53.478;10.182;2023-02-12T13:31:44;6.53;;;3.97;;
23743;SDS011;12052;53.478;10.182;2023-02-12T13:34:15;8.98;;;4.25;;
23743;SDS011;12052;53.478;10.182;2023-02-12T13:36:42;8.13;;;3.80;;
23743;SDS011;12052;53.478;10.182;2023-02-12T13:39:24;12.23;;;4.30;;
23743;SDS011;12052;53.478;10.182;2023-02-12T13:42:07;8.38;;;3.08;;
23743;SDS011;12052;53.478;10.182;2023-02-12T13:47:20;8.35;;;3.85;;
23743;SDS011;12052;53.478;10.182;2023-02-12T13:52:38;8.20;;;3.65;;
23743;SDS011;12052;53.478;10.182;2023-02-12T13:55:13;9.43;;;3.47;;
23743;SDS011;12052;53.478;10.182;2023-02-12T13:57:44;8.23;;;3.85;;
23743;SDS011;12052;53.478;10.182;2023-02-12T14:03:22;7.85;;;3.40;;
23743;SDS011;12052;53.478;10.182;2023-02-12T14:06:02;7.10;;;4.00;;
23743;SDS011;12052;53.478;10.182;2023-02-12T14:08:43;7.85;;;3.88;;
23743;SDS011;12052;53.478;10.182;2023-02-12T14:11:14;6.03;;;3.63;;
23743;SDS011;12052;53.478;10.182;2023-02-12T14:13:52;6.72;;;3.42;;
23743;SDS011;12052;53.478;10.182;2023-02-12T14:22:09;8.00;;;3.65;;
23743;SDS011;12052;53.478;10.182;2023-02-12T14:24:59;6.68;;;3.60;;
23743;SDS011;12052;53.478;10.182;2023-02-12T14:27:40;5.43;;;3.17;;
23743;SDS011;12052;53.478;10.182;2023-02-12T14:40:42;6.90;;;2.28;;
23743;SDS011;12052;53.478;10.182;2023-02-12T14:45:56;9.15;;;3.30;;
23743;SDS011;12052;53.478;10.182;2023-02-12T14:51:50;6.45;;;3.38;;
23743;SDS011;12052;53.478;10.182;2023-02-12T14:54:27;4.82;;;2.95;;
23743;SDS011;12052;53.478;10.182;2023-02-12T14:56:58;6.07;;;3.05;;
23743;SDS011;12052;53.478;10.182;2023-02-12T14:59:27;4.95;;;3.58;;
23743;SDS011;12052;53.478;10.182;2023-02-12T15:01:58;9.40;;;3.88;;
23743;SDS011;12052;53.478;10.182;2023-02-12T15:04:27;6.28;;;3.28;;
23743;SDS011;12052;53.478;10.182;2023-02-12T15:09:46;5.18;;;2.92;;
23743;SDS011;12052;53.478;10.182;2023-02-12T15:15:00;4.35;;;2.40;;
23743;SDS011;12052;53.478;10.182;2023-02-12T15:17:38;3.13;;;2.10;;
23743;SDS011;12052;53.478;10.182;2023-02-12T15:22:44;5.57;;;2.38;;
23743;SDS011;12052;53.478;10.182;2023-02-12T15:25:19;3.42;;;2.00;;
23743;SDS011;12052;53.478;10.182;2023-02-12T15:30:33;4.00;;;2.38;;
23743;SDS011;12052;53.478;10.182;2023-02-12T15:33:04;4.97;;;2.08;;
23743;SDS011;12052;53.478;10.182;2023-02-12T15:35:32;10.63;;;2.30;;
23743;SDS011;12052;53.478;10.182;2023-02-12T15:38:00;5.43;;;2.72;;
23743;SDS011;12052;53.478;10.182;2023-02-12T15:40:28;6.47;;;2.55;;
23743;SDS011;12052;53.478;10.182;2023-02-12T15:45:32;5.70;;;2.90;;
23743;SDS011;12052;53.478;10.182;2023-02-12T15:53:22;8.65;;;4.07;;
23743;SDS011;12052;53.478;10.182;2023-02-12T15:55:50;12.90;;;4.22;;
23743;SDS011;12052;53.478;10.182;2023-02-12T15:58:20;10.10;;;4.20;;
23743;SDS011;12052;53.478;10.182;2023-02-12T16:00:48;8.65;;;3.78;;
23743;SDS011;12052;53.478;10.182;2023-02-12T16:03:48;10.40;;;4.53;;
23743;SDS011;12052;53.478;10.182;2023-02-12T16:06:07;9.27;;;4.60;;
23743;SDS011;12052;53.478;10.182;2023-02-12T16:08:38;15.02;;;5.50;;
23743;SDS011;12052;53.478;10.182;2023-02-12T16:11:07;10.35;;;5.00;;
23743;SDS011;12052;53.478;10.182;2023-02-12T16:13:45;14.45;;;5.20;;
23743;SDS011;12052;53.478;10.182;2023-02-12T16:18:39;10.60;;;5.03;;
23743;SDS011;12052;53.478;10.182;2023-02-12T16:21:10;12.30;;;5.70;;
23743;SDS011;12052;53.478;10.182;2023-02-12T16:23:42;10.10;;;5.50;;
23743;SDS011;12052;53.478;10.182;2023-02-12T16:26:17;9.15;;;5.63;;
23743;SDS011;12052;53.478;10.182;2023-02-12T16:28:55;8.98;;;4.80;;
23743;SDS011;12052;53.478;10.182;2023-02-12T16:31:22;15.45;;;8.82;;
23743;SDS011;12052;53.478;10.182;2023-02-12T16:33:52;17.50;;;8.32;;
23743;SDS011;12052;53.478;10.182;2023-02-12T16:38:49;13.98;;;7.47;;
23743;SDS011;12052;53.478;10.182;2023-02-12T16:43:45;10.52;;;5.57;;
23743;SDS011;12052;53.478;10.182;2023-02-12T16:46:13;22.70;;;12.77;;
23743;SDS011;12052;53.478;10.182;2023-02-12T16:48:44;9.65;;;4.72;;
23743;SDS011;12052;53.478;10.182;2023-02-12T16:54:01;10.50;;;5.47;;
23743;SDS011;12052;53.478;10.182;2023-02-12T16:56:29;10.40;;;5.65;;
23743;SDS011;12052;53.478;10.182;2023-02-12T16:58:58;7.97;;;4.70;;
23743;SDS011;12052;53.478;10.182;2023-02-12T17:01:32;9.52;;;4.53;;
23743;SDS011;12052;53.478;10.182;2023-02-12T17:04:00;9.55;;;4.60;;
23743;SDS011;12052;53.478;10.182;2023-02-12T17:06:30;10.55;;;5.93;;
23743;SDS011;12052;53.478;10.182;2023-02-12T17:08:56;11.93;;;6.18;;
23743;SDS011;12052;53.478;10.182;2023-02-12T17:11:23;11.05;;;5.45;;
23743;SDS011;12052;53.478;10.182;2023-02-12T17:13:51;8.27;;;5.07;;
23743;SDS011;12052;53.478;10.182;2023-02-12T17:16:19;13.48;;;6.20;;
23743;SDS011;12052;53.478;10.182;2023-02-12T17:18:44;9.85;;;4.70;;
23743;SDS011;12052;53.478;10.182;2023-02-12T17:21:18;9.07;;;5.00;;
23743;SDS011;12052;53.478;10.182;2023-02-12T17:23:48;11.68;;;6.32;;
23743;SDS011;12052;53.478;10.182;2023-02-12T17:26:14;13.40;;;6.18;;
23743;SDS011;12052;53.478;10.182;2023-02-12T17:28:40;12.07;;;7.18;;
23743;SDS011;12052;53.478;10.182;2023-02-12T17:31:06;13.90;;;5.13;;
23743;SDS011;12052;53.478;10.182;2023-02-12T17:33:32;9.98;;;5.43;;
23743;SDS011;12052;53.478;10.182;2023-02-12T17:35:58;12.02;;;6.00;;
23743;SDS011;12052;53.478;10.182;2023-02-12T17:38:24;14.50;;;6.55;;
23743;SDS011;12052;53.478;10.182;2023-02-12T17:40:50;8.05;;;5.00;;
23743;SDS011;12052;53.478;10.182;2023-02-12T17:43:15;11.65;;;5.85;;
23743;SDS011;12052;53.478;10.182;2023-02-12T17:45:41;9.15;;;4.88;;
23743;SDS011;12052;53.478;10.182;2023-02-12T17:48:08;8.05;;;4.68;;